createdAt,value
2019-02-09T00:00:04.175Z,5.90
2019-02-09T00:02:32.140Z,5.90
2019-02-09T00:05:00.246Z,5.90
2019-02-09T00:07:28.123Z,5.90
2019-02-09T00:09:56.092Z,6.00
2019-02-09T00:12:24.076Z,5.90
2019-02-09T00:14:52.021Z,6.00
2019-02-09T00:17:19.989Z,6.00
2019-02-09T00:19:47.888Z,6.00
2019-02-09T00:22:15.886Z,6.00
2019-02-09T00:24:48.671Z,6.00
2019-02-09T00:27:16.759Z,6.00
2019-02-09T00:29:46.348Z,5.90
2019-02-09T00:32:14.459Z,5.80
2019-02-09T00:34:42.478Z,5.70
2019-02-09T00:37:10.340Z,5.70
2019-02-09T00:39:38.233Z,5.70
2019-02-09T00:42:06.122Z,5.70
2019-02-09T00:44:33.997Z,5.60
2019-02-09T00:47:01.903Z,5.40
2019-02-09T00:49:29.922Z,5.40
2019-02-09T00:51:57.855Z,5.30
2019-02-09T00:54:25.747Z,5.20
2019-02-09T00:56:53.644Z,5.20
2019-02-09T00:59:21.672Z,5.20
2019-02-09T01:01:49.584Z,5.20
2019-02-09T01:04:17.584Z,5.20
2019-02-09T01:06:45.505Z,5.10
2019-02-09T01:09:13.453Z,5.10
2019-02-09T01:11:41.434Z,5.00
2019-02-09T01:14:09.287Z,5.00
2019-02-09T01:16:37.229Z,5.00
2019-02-09T01:19:05.216Z,5.00
2019-02-09T01:21:33.144Z,5.00
2019-02-09T01:24:01.099Z,4.90
2019-02-09T01:26:29.006Z,4.90
2019-02-09T01:28:57.025Z,4.80
2019-02-09T01:31:24.890Z,4.80
2019-02-09T01:33:52.788Z,4.90
2019-02-09T01:36:20.820Z,4.90
2019-02-09T01:38:48.780Z,4.90
2019-02-09T01:41:16.942Z,4.90
2019-02-09T01:43:44.816Z,4.90
2019-02-09T01:46:12.749Z,4.80
2019-02-09T01:48:40.642Z,4.80
2019-02-09T01:51:08.702Z,4.80
2019-02-09T01:53:36.563Z,4.80
2019-02-09T01:56:04.490Z,4.80
2019-02-09T01:58:32.415Z,4.80
2019-02-09T02:01:00.338Z,4.80
2019-02-09T02:03:28.356Z,4.90
2019-02-09T02:05:56.287Z,4.90
2019-02-09T02:08:24.253Z,4.90
2019-02-09T02:10:52.222Z,5.00
2019-02-09T02:13:20.179Z,5.20
2019-02-09T02:15:48.158Z,5.30
2019-02-09T02:18:16.046Z,5.30
2019-02-09T02:20:44.089Z,5.20
2019-02-09T02:23:12.034Z,5.40
2019-02-09T02:25:40.007Z,5.40
2019-02-09T02:28:07.929Z,5.40
2019-02-09T02:30:35.852Z,5.30
2019-02-09T02:33:03.778Z,5.30
2019-02-09T02:35:31.686Z,5.30
2019-02-09T02:37:59.597Z,5.20
2019-02-09T02:40:27.458Z,5.10
2019-02-09T02:42:55.350Z,5.10
2019-02-09T02:45:23.199Z,5.10
2019-02-09T02:47:51.231Z,5.10
2019-02-09T02:50:19.247Z,5.10
2019-02-09T02:52:47.162Z,5.10
2019-02-09T02:55:15.027Z,5.20
2019-02-09T02:57:43.026Z,5.20
2019-02-09T03:00:11.103Z,5.10
2019-02-09T03:02:39.179Z,5.20
2019-02-09T03:05:07.046Z,5.20
2019-02-09T03:07:35.025Z,5.20
2019-02-09T03:10:03.021Z,5.20
2019-02-09T03:12:30.839Z,5.40
2019-02-09T03:14:58.707Z,5.50
2019-02-09T03:17:26.625Z,5.40
2019-02-09T03:19:54.550Z,5.40
2019-02-09T03:22:22.528Z,5.40
2019-02-09T03:24:50.483Z,5.40
2019-02-09T03:27:18.315Z,5.30
2019-02-09T03:29:46.204Z,5.20
2019-02-09T03:32:14.077Z,5.30
2019-02-09T03:34:41.959Z,5.30
2019-02-09T03:37:09.808Z,5.30
2019-02-09T03:39:37.646Z,5.40
2019-02-09T03:42:05.525Z,5.40
2019-02-09T03:44:33.463Z,5.50
2019-02-09T03:47:03.033Z,5.70
2019-02-09T03:49:30.880Z,5.70
2019-02-09T03:51:58.744Z,5.80
2019-02-09T03:54:26.671Z,5.80
2019-02-09T03:56:54.501Z,5.70
2019-02-09T03:59:22.427Z,5.70
2019-02-09T04:01:50.285Z,5.90
2019-02-09T04:04:18.204Z,5.90
2019-02-09T04:06:46.047Z,5.90
2019-02-09T04:09:14.028Z,5.90
2019-02-09T04:11:41.929Z,6.00
2019-02-09T04:14:09.837Z,5.90
2019-02-09T04:16:37.876Z,5.90
2019-02-09T04:19:05.765Z,5.90
2019-02-09T04:21:33.649Z,5.80
2019-02-09T04:24:01.542Z,5.80
2019-02-09T04:26:29.481Z,5.70
2019-02-09T04:28:57.329Z,5.70
2019-02-09T04:31:25.240Z,5.70
2019-02-09T04:33:53.184Z,5.60
2019-02-09T04:36:21.036Z,5.40
2019-02-09T04:38:48.967Z,5.30
2019-02-09T04:41:16.809Z,5.20
2019-02-09T04:43:44.696Z,5.20
2019-02-09T04:46:12.682Z,5.10
2019-02-09T04:48:40.559Z,4.90
2019-02-09T04:51:08.391Z,4.80
2019-02-09T04:53:36.267Z,4.80
2019-02-09T04:56:04.214Z,4.70
2019-02-09T04:58:32.109Z,4.60
2019-02-09T05:00:59.946Z,4.50
2019-02-09T05:03:27.823Z,4.40
2019-02-09T05:05:55.744Z,4.40
2019-02-09T05:08:23.592Z,4.40
2019-02-09T05:10:51.426Z,4.40
2019-02-09T05:13:19.291Z,4.40
2019-02-09T05:15:47.155Z,4.50
2019-02-09T05:18:15.059Z,4.60
2019-02-09T05:20:43.024Z,4.60
2019-02-09T05:23:10.916Z,4.50
2019-02-09T05:25:38.777Z,4.50
2019-02-09T05:28:06.630Z,4.40
2019-02-09T05:30:34.608Z,4.60
2019-02-09T05:33:02.460Z,4.60
2019-02-09T05:35:30.332Z,4.60
2019-02-09T05:37:58.172Z,4.60
2019-02-09T05:40:26.036Z,4.50
2019-02-09T05:42:53.869Z,4.40
2019-02-09T05:45:21.853Z,4.40
2019-02-09T05:47:49.787Z,4.40
2019-02-09T05:50:17.646Z,4.30
2019-02-09T05:52:45.522Z,4.20
2019-02-09T05:55:13.475Z,4.10
2019-02-09T05:57:41.465Z,4.30
2019-02-09T06:00:09.461Z,4.40
2019-02-09T06:02:37.534Z,4.70
2019-02-09T06:05:05.383Z,5.40
2019-02-09T06:07:33.257Z,5.20
2019-02-09T06:10:01.157Z,5.10
2019-02-09T06:12:29.038Z,5.20
2019-02-09T06:14:56.899Z,5.50
2019-02-09T06:17:24.797Z,5.60
2019-02-09T06:19:52.683Z,5.60
2019-02-09T06:22:20.611Z,5.40
2019-02-09T06:24:48.664Z,5.40
2019-02-09T06:27:16.532Z,5.80
2019-02-09T06:29:44.496Z,5.90
2019-02-09T06:32:12.448Z,6.00
2019-02-09T06:34:40.293Z,6.00
2019-02-09T06:37:08.163Z,5.80
2019-02-09T06:39:36.018Z,5.60
2019-02-09T06:42:03.855Z,5.50
2019-02-09T06:44:31.745Z,5.70
2019-02-09T06:46:59.639Z,5.60
2019-02-09T06:49:27.518Z,5.60
2019-02-09T06:51:55.387Z,5.50
2019-02-09T06:54:23.297Z,5.40
2019-02-09T06:56:51.166Z,5.50
2019-02-09T06:59:19.060Z,5.60
2019-02-09T07:01:48.741Z,5.70
2019-02-09T07:04:16.682Z,5.50
2019-02-09T07:06:44.529Z,5.40
2019-02-09T07:09:12.425Z,5.80
2019-02-09T07:11:40.279Z,5.80
2019-02-09T07:14:08.167Z,6.00
2019-02-09T07:16:36.008Z,6.10
2019-02-09T07:19:03.903Z,6.10
2019-02-09T07:21:31.769Z,6.10
2019-02-09T07:23:59.647Z,6.10
2019-02-09T07:26:27.603Z,6.10
2019-02-09T07:28:55.488Z,6.10
2019-02-09T07:31:23.358Z,6.10
2019-02-09T07:33:51.265Z,6.00
2019-02-09T07:36:19.154Z,5.90
2019-02-09T07:38:47.063Z,5.80
2019-02-09T07:41:14.993Z,5.70
2019-02-09T07:43:42.861Z,5.60
2019-02-09T07:46:10.750Z,5.60
2019-02-09T07:48:38.693Z,5.50
2019-02-09T07:51:06.560Z,5.60
2019-02-09T07:53:34.549Z,5.70
2019-02-09T07:56:02.419Z,5.80
2019-02-09T07:58:30.402Z,5.90
2019-02-09T08:00:58.367Z,6.10
2019-02-09T08:03:26.219Z,6.00
2019-02-09T08:05:54.166Z,5.90
2019-02-09T08:08:22.158Z,5.90
2019-02-09T08:10:50.122Z,5.90
2019-02-09T08:13:17.992Z,5.80
2019-02-09T08:15:45.886Z,5.70
2019-02-09T08:18:13.738Z,5.60
2019-02-09T08:20:41.650Z,5.50
2019-02-09T08:23:09.580Z,5.50
2019-02-09T08:25:37.463Z,5.70
2019-02-09T08:28:05.366Z,5.90
2019-02-09T08:30:33.220Z,6.10
2019-02-09T08:33:01.163Z,6.10
2019-02-09T08:35:29.011Z,6.20
2019-02-09T08:37:56.900Z,6.20
2019-02-09T08:40:24.740Z,6.30
2019-02-09T08:42:52.604Z,6.40
2019-02-09T08:45:20.524Z,6.40
2019-02-09T08:47:48.389Z,6.50
2019-02-09T08:50:16.310Z,6.60
2019-02-09T08:52:44.217Z,6.50
2019-02-09T08:55:12.188Z,6.60
2019-02-09T08:57:40.111Z,6.70
2019-02-09T09:00:08.091Z,6.60
2019-02-09T09:02:35.923Z,6.70
2019-02-09T09:05:09.578Z,6.70
2019-02-09T09:07:33.487Z,6.80
2019-02-09T09:10:01.517Z,7.10
2019-02-09T09:12:29.473Z,7.10
2019-02-09T09:14:57.397Z,7.20
2019-02-09T09:17:25.396Z,7.30
2019-02-09T09:19:53.285Z,7.40
2019-02-09T09:22:21.234Z,7.50
2019-02-09T09:24:49.127Z,7.50
2019-02-09T09:27:16.986Z,7.50
2019-02-09T09:29:44.871Z,7.50
2019-02-09T09:32:12.748Z,7.50
2019-02-09T09:34:40.684Z,7.60
2019-02-09T09:37:08.790Z,7.60
2019-02-09T09:39:36.670Z,7.60
2019-02-09T09:42:04.550Z,7.60
2019-02-09T09:44:32.453Z,7.70
2019-02-09T09:47:00.335Z,7.70
2019-02-09T09:49:28.232Z,7.60
2019-02-09T09:51:56.148Z,7.60
2019-02-09T09:54:24.029Z,7.50
2019-02-09T09:56:52.038Z,7.50
2019-02-09T09:59:19.983Z,7.50
2019-02-09T10:01:47.940Z,7.70
2019-02-09T10:04:15.809Z,7.70
2019-02-09T10:06:43.702Z,7.70
2019-02-09T10:09:11.681Z,7.80
2019-02-09T10:11:39.538Z,7.90
2019-02-09T10:14:09.003Z,8.00
2019-02-09T10:16:37.101Z,8.00
2019-02-09T10:19:04.995Z,8.10
2019-02-09T10:21:32.888Z,8.20
2019-02-09T10:24:00.944Z,8.20
2019-02-09T10:26:28.870Z,8.30
2019-02-09T10:28:56.876Z,8.30
2019-02-09T10:31:24.759Z,8.30
2019-02-09T10:33:52.631Z,8.40
2019-02-09T10:36:20.493Z,8.40
2019-02-09T10:38:48.347Z,8.50
2019-02-09T10:41:16.367Z,8.50
2019-02-09T10:43:45.234Z,8.50
2019-02-09T10:46:13.129Z,8.70
2019-02-09T10:48:40.985Z,8.70
2019-02-09T10:51:08.998Z,8.80
2019-02-09T10:53:36.975Z,8.80
2019-02-09T10:56:04.837Z,8.80
2019-02-09T10:58:32.756Z,8.80
2019-02-09T11:01:00.605Z,8.90
2019-02-09T11:03:28.490Z,8.90
2019-02-09T11:05:56.339Z,8.90
2019-02-09T11:08:24.185Z,8.80
2019-02-09T11:10:52.099Z,8.70
2019-02-09T11:13:20.039Z,8.50
2019-02-09T11:15:47.921Z,8.60
2019-02-09T11:18:15.888Z,8.60
2019-02-09T11:20:43.824Z,8.40
2019-02-09T11:23:11.759Z,8.40
2019-02-09T11:25:39.673Z,8.20
2019-02-09T11:28:07.551Z,8.10
2019-02-09T11:30:35.439Z,8.20
2019-02-09T11:33:03.284Z,8.20
2019-02-09T11:35:31.133Z,8.20
2019-02-09T11:37:59.043Z,8.20
2019-02-09T11:40:27.002Z,8.30
2019-02-09T11:42:54.912Z,8.30
2019-02-09T11:45:22.882Z,8.40
2019-02-09T11:47:50.824Z,8.50
2019-02-09T11:50:18.693Z,8.70
2019-02-09T11:52:46.558Z,8.80
2019-02-09T11:55:15.907Z,9.00
2019-02-09T11:57:44.066Z,9.00
2019-02-09T17:24:20.400Z,8.00
2019-02-09T17:26:48.256Z,8.00
2019-02-09T17:29:16.149Z,7.80
2019-02-09T17:31:44.166Z,7.50
2019-02-09T17:34:12.060Z,7.20
2019-02-09T17:36:40.044Z,7.00
2019-02-09T17:39:07.970Z,6.80
2019-02-09T17:41:35.790Z,6.70
2019-02-09T17:44:03.664Z,6.60
2019-02-09T17:46:31.535Z,6.60
2019-02-09T17:48:59.461Z,6.50
2019-02-09T17:51:27.373Z,6.40
2019-02-09T17:53:55.256Z,6.40
2019-02-09T17:56:23.220Z,6.40
2019-02-09T17:58:51.179Z,6.40
2019-02-09T18:01:19.047Z,6.30
2019-02-09T18:03:46.942Z,6.40
2019-02-09T18:06:14.820Z,6.40
2019-02-09T18:08:42.808Z,6.50
2019-02-09T18:11:10.663Z,6.50
2019-02-09T18:13:38.509Z,6.40
2019-02-09T18:16:06.379Z,6.40
2019-02-09T18:18:34.296Z,6.30
2019-02-09T18:21:02.252Z,6.20
2019-02-09T18:23:30.227Z,6.30
2019-02-09T18:25:58.174Z,6.30
2019-02-09T18:28:26.139Z,6.30
2019-02-09T18:30:54.039Z,6.20
2019-02-09T18:33:22.009Z,6.20
2019-02-09T18:35:49.885Z,6.20
2019-02-09T18:38:17.766Z,6.10
2019-02-09T18:40:45.734Z,6.20
2019-02-09T18:43:13.585Z,6.20
2019-02-09T18:45:41.464Z,6.20
2019-02-09T18:48:09.371Z,6.20
2019-02-09T18:50:37.283Z,6.20
2019-02-09T18:53:05.173Z,6.20
2019-02-09T18:55:33.113Z,6.20
2019-02-09T18:58:01.088Z,6.10
2019-02-09T19:00:29.036Z,6.20
2019-02-09T19:02:56.950Z,6.20
2019-02-09T19:05:25.011Z,6.20
2019-02-09T19:07:52.977Z,6.30
2019-02-09T19:10:20.923Z,6.30
2019-02-09T19:12:48.798Z,6.30
2019-02-09T19:15:16.639Z,6.30
2019-02-09T19:17:44.542Z,6.30
2019-02-09T19:20:12.398Z,6.30
2019-02-09T19:22:40.289Z,6.20
2019-02-09T19:25:08.154Z,6.20
2019-02-09T19:27:36.054Z,6.10
2019-02-09T19:30:04.027Z,6.00
2019-02-09T19:32:31.919Z,6.00
2019-02-09T19:34:59.845Z,6.00
2019-02-09T19:37:27.792Z,6.00
2019-02-09T19:39:55.629Z,6.00
2019-02-09T19:42:23.508Z,6.00
2019-02-09T19:44:51.376Z,6.00
2019-02-09T19:47:19.287Z,5.90
2019-02-09T19:49:47.232Z,5.90
2019-02-09T19:52:15.211Z,5.90
2019-02-09T19:54:43.064Z,5.90
2019-02-09T19:57:10.926Z,5.80
2019-02-09T19:59:38.810Z,5.70
2019-02-09T20:02:06.769Z,5.60
2019-02-09T20:04:34.754Z,5.50
2019-02-09T20:07:02.619Z,5.40
2019-02-09T20:09:30.497Z,5.40
2019-02-09T20:11:58.380Z,5.30
2019-02-09T20:14:26.274Z,5.20
2019-02-09T20:16:54.139Z,5.10
2019-02-09T20:19:22.169Z,5.00
2019-02-09T20:21:50.173Z,5.00
2019-02-09T20:24:18.105Z,4.90
2019-02-09T20:26:46.057Z,4.90
2019-02-09T20:29:13.895Z,4.90
2019-02-09T20:31:41.815Z,4.80
2019-02-09T20:34:09.690Z,4.80
2019-02-09T20:36:37.562Z,4.80
2019-02-09T20:39:05.457Z,4.80
2019-02-09T20:41:33.413Z,4.70
2019-02-09T20:44:01.282Z,4.70
2019-02-09T20:46:29.227Z,4.70
2019-02-09T20:48:57.121Z,4.70
2019-02-09T20:51:24.987Z,4.60
2019-02-09T20:53:52.888Z,4.60
2019-02-09T20:56:20.747Z,4.60
2019-02-09T20:58:48.619Z,4.60
2019-02-09T21:01:16.468Z,4.50
2019-02-09T21:03:44.423Z,4.40
2019-02-09T21:06:12.312Z,4.40
2019-02-09T21:08:40.290Z,4.40
2019-02-09T21:11:08.262Z,4.40
2019-02-09T21:13:36.194Z,4.40
2019-02-09T21:16:04.019Z,4.40
2019-02-09T21:18:31.975Z,4.40
2019-02-09T21:20:59.831Z,4.30
2019-02-09T21:23:27.743Z,4.30
2019-02-09T21:25:55.605Z,4.20
2019-02-09T21:28:23.457Z,4.20
2019-02-09T21:30:51.290Z,4.10
2019-02-09T21:33:19.277Z,4.10
2019-02-09T21:35:47.157Z,4.10
2019-02-09T21:38:15.055Z,4.00
2019-02-09T21:40:42.911Z,4.00
2019-02-09T21:43:10.784Z,3.90
2019-02-09T21:45:45.059Z,3.90
2019-02-09T21:48:08.254Z,3.80
2019-02-09T21:50:36.144Z,3.80
2019-02-09T21:53:04.030Z,3.70
2019-02-09T21:55:31.893Z,3.80
2019-02-09T21:57:59.755Z,3.70
2019-02-09T22:00:27.652Z,3.70
2019-02-09T22:02:55.523Z,3.70
2019-02-09T22:05:23.472Z,3.80
2019-02-09T22:07:51.352Z,3.80
2019-02-09T22:10:19.330Z,3.80
2019-02-09T22:12:47.226Z,3.80
2019-02-09T22:15:15.350Z,3.70
2019-02-09T22:17:43.390Z,3.70
2019-02-09T22:20:11.344Z,3.60
2019-02-09T22:22:39.339Z,3.70
2019-02-09T22:25:07.275Z,3.60
2019-02-09T22:27:35.150Z,3.60
2019-02-09T22:30:03.066Z,3.60
2019-02-09T22:32:31.876Z,3.60
2019-02-09T22:34:59.840Z,3.60
2019-02-09T22:37:27.894Z,3.60
2019-02-09T22:39:55.877Z,3.60
2019-02-09T22:42:23.842Z,3.60
2019-02-09T22:44:51.790Z,3.60
2019-02-09T22:47:20.833Z,3.60
2019-02-09T22:49:49.110Z,3.60
2019-02-09T22:52:17.188Z,3.60
2019-02-09T22:54:45.263Z,3.70
2019-02-09T22:57:13.095Z,3.70
2019-02-09T22:59:40.982Z,3.70
2019-02-09T23:02:08.907Z,3.70
2019-02-09T23:04:36.795Z,3.60
2019-02-09T23:07:04.688Z,3.60
2019-02-09T23:09:32.602Z,3.70
2019-02-09T23:12:00.536Z,3.60
2019-02-09T23:14:28.462Z,3.60
2019-02-09T23:16:56.312Z,3.60
2019-02-09T23:19:24.255Z,3.60
2019-02-09T23:21:52.113Z,3.60
2019-02-09T23:24:20.080Z,3.50
2019-02-09T23:26:47.916Z,3.50
2019-02-09T23:29:15.808Z,3.40
2019-02-09T23:31:43.692Z,3.30
2019-02-09T23:34:11.590Z,3.30
2019-02-09T23:36:39.566Z,3.30
2019-02-09T23:39:07.426Z,3.30
2019-02-09T23:41:35.415Z,3.20
2019-02-09T23:44:03.270Z,3.20
2019-02-09T23:46:31.162Z,3.20
2019-02-09T23:48:59.040Z,3.10
2019-02-09T23:51:26.966Z,3.10
2019-02-09T23:53:54.867Z,3.10
2019-02-09T23:56:22.746Z,3.00
2019-02-09T23:58:50.601Z,3.00
